createdAt,value
2023-02-01T00:01:37.325Z,11.43
2023-02-01T00:04:24.089Z,10.90
2023-02-01T00:07:13.284Z,5.88
2023-02-01T00:10:00.940Z,8.93
2023-02-01T00:12:47.360Z,7.40
2023-02-01T00:15:34.938Z,8.63
2023-02-01T00:18:21.117Z,9.82
2023-02-01T00:21:07.556Z,9.27
2023-02-01T00:23:54.250Z,10.20
2023-02-01T00:26:46.221Z,6.40
2023-02-01T00:29:32.472Z,11.35
2023-02-01T00:32:19.459Z,7.35
2023-02-01T00:35:06.253Z,9.57
2023-02-01T00:37:54.225Z,9.57
2023-02-01T00:40:40.477Z,14.80
2023-02-01T00:43:27.728Z,9.35
2023-02-01T00:46:16.025Z,15.25
2023-02-01T00:49:02.804Z,12.98
2023-02-01T00:51:51.783Z,15.07
2023-02-01T00:54:38.875Z,8.95
2023-02-01T00:57:25.116Z,11.40
2023-02-01T01:00:12.512Z,12.98
2023-02-01T01:02:59.683Z,10.30
2023-02-01T01:06:00.676Z,12.85
2023-02-01T01:08:47.048Z,11.43
2023-02-01T01:11:36.790Z,16.90
2023-02-01T01:14:24.701Z,14.98
2023-02-01T01:17:11.123Z,21.63
2023-02-01T01:19:59.846Z,14.95
2023-02-01T01:22:49.488Z,10.27
2023-02-01T01:25:40.863Z,7.13
2023-02-01T01:28:27.839Z,11.48
2023-02-01T01:31:16.383Z,13.93
2023-02-01T01:34:03.515Z,11.77
2023-02-01T01:36:50.672Z,13.13
2023-02-01T01:39:37.441Z,9.63
2023-02-01T01:42:23.702Z,9.63
2023-02-01T01:45:33.425Z,10.10
2023-02-01T01:48:23.839Z,11.93
2023-02-01T01:51:11.618Z,13.18
2023-02-01T01:54:21.975Z,6.75
2023-02-01T01:57:15.495Z,16.88
2023-02-01T02:00:14.945Z,5.85
2023-02-01T02:03:35.373Z,7.60
2023-02-01T02:06:29.101Z,12.35
2023-02-01T02:09:16.180Z,11.63
2023-02-01T02:12:16.175Z,10.45
2023-02-01T02:20:51.488Z,15.60
2023-02-01T02:23:59.127Z,19.30
2023-02-01T02:27:05.491Z,12.98
2023-02-01T02:30:14.035Z,11.20
2023-02-01T02:33:25.454Z,16.17
2023-02-01T02:36:19.057Z,12.30
2023-02-01T02:39:34.753Z,10.73
2023-02-01T02:42:43.224Z,15.43
2023-02-01T02:45:57.182Z,7.50
2023-02-01T02:48:47.888Z,11.63
2023-02-01T02:52:06.316Z,11.70
2023-02-01T02:54:55.688Z,13.23
2023-02-01T02:58:01.969Z,9.73
2023-02-01T03:01:08.066Z,11.45
2023-02-01T03:04:09.743Z,14.50
2023-02-01T03:06:58.484Z,6.75
2023-02-01T03:09:47.528Z,9.73
2023-02-01T03:12:56.471Z,10.90
2023-02-01T03:16:00.003Z,6.50
2023-02-01T03:18:59.178Z,11.73
2023-02-01T03:21:57.862Z,7.10
2023-02-01T03:25:14.257Z,9.85
2023-02-01T03:28:07.746Z,10.07
2023-02-01T03:30:54.840Z,12.90
2023-02-01T03:33:41.622Z,16.40
2023-02-01T03:36:31.927Z,12.55
2023-02-01T03:39:31.437Z,16.63
2023-02-01T03:42:28.354Z,13.30
2023-02-01T03:45:19.709Z,15.15
2023-02-01T03:48:07.931Z,8.80
2023-02-01T03:50:57.715Z,13.43
2023-02-01T03:53:47.738Z,16.20
2023-02-01T03:56:37.732Z,12.55
2023-02-01T03:59:25.185Z,13.83
2023-02-01T04:02:12.396Z,13.07
2023-02-01T04:04:58.974Z,13.60
2023-02-01T04:07:45.381Z,16.85
2023-02-01T04:10:35.638Z,13.23
2023-02-01T04:13:21.997Z,14.93
2023-02-01T04:16:09.688Z,14.70
2023-02-01T04:18:55.761Z,25.13
2023-02-01T04:21:42.433Z,10.05
2023-02-01T04:24:28.894Z,15.07
2023-02-01T04:27:15.258Z,13.95
2023-02-01T04:30:02.165Z,12.70
2023-02-01T04:32:48.846Z,19.33
2023-02-01T04:35:35.388Z,12.23
2023-02-01T04:38:22.112Z,9.10
2023-02-01T04:41:08.361Z,17.05
2023-02-01T04:43:54.816Z,12.77
2023-02-01T04:46:41.475Z,9.43
2023-02-01T04:49:28.215Z,14.88
2023-02-01T04:52:14.431Z,14.07
2023-02-01T04:55:01.910Z,16.40
2023-02-01T04:57:48.103Z,9.52
2023-02-01T05:00:35.263Z,12.25
2023-02-01T05:03:22.003Z,13.73
2023-02-01T05:06:08.462Z,13.38
2023-02-01T05:08:54.992Z,15.15
2023-02-01T05:12:01.680Z,13.80
2023-02-01T05:14:48.905Z,14.90
2023-02-01T05:17:36.071Z,11.07
2023-02-01T05:20:22.751Z,12.88
2023-02-01T05:23:09.335Z,12.45
2023-02-01T05:26:00.746Z,12.48
2023-02-01T05:28:47.570Z,16.63
2023-02-01T05:31:34.124Z,13.10
2023-02-01T05:34:20.916Z,11.90
2023-02-01T05:37:07.408Z,15.80
2023-02-01T05:39:54.459Z,15.50
2023-02-01T05:42:43.717Z,23.42
2023-02-01T05:45:30.539Z,8.60
2023-02-01T05:48:16.960Z,16.65
2023-02-01T05:51:03.420Z,15.18
2023-02-01T05:53:49.832Z,15.95
2023-02-01T05:56:36.497Z,20.48
2023-02-01T05:59:22.757Z,17.25
2023-02-01T06:02:11.143Z,16.42
2023-02-01T06:04:57.519Z,12.98
2023-02-01T06:17:35.488Z,8.70
2023-02-01T06:20:22.540Z,7.40
2023-02-01T06:23:09.063Z,10.32
2023-02-01T06:26:01.907Z,13.70
2023-02-01T06:28:48.498Z,9.32
2023-02-01T06:31:55.368Z,14.30
2023-02-01T06:34:41.961Z,11.02
2023-02-01T06:37:31.322Z,15.25
2023-02-01T06:40:17.989Z,20.92
2023-02-01T06:43:04.831Z,12.00
2023-02-01T06:45:51.382Z,15.45
2023-02-01T06:48:37.793Z,12.88
2023-02-01T06:51:29.104Z,17.40
2023-02-01T06:54:15.869Z,8.82
2023-02-01T06:57:02.534Z,12.95
2023-02-01T06:59:48.965Z,23.05
2023-02-01T07:02:35.458Z,20.70
2023-02-01T07:05:22.437Z,18.77
2023-02-01T07:08:08.766Z,18.95
2023-02-01T07:10:55.844Z,22.35
2023-02-01T07:13:42.294Z,23.13
2023-02-01T07:16:28.906Z,18.48
2023-02-01T07:19:15.190Z,19.52
2023-02-01T07:22:01.643Z,18.63
2023-02-01T07:24:48.450Z,19.83
2023-02-01T07:27:37.155Z,20.20
2023-02-01T07:30:23.736Z,23.33
2023-02-01T07:33:10.511Z,15.27
2023-02-01T07:35:58.747Z,22.15
2023-02-01T07:38:45.530Z,25.10
2023-02-01T07:41:31.622Z,26.65
2023-02-01T07:44:23.709Z,19.33
2023-02-01T07:47:10.052Z,17.10
2023-02-01T07:49:57.034Z,19.85
2023-02-01T07:52:43.424Z,18.75
2023-02-01T07:55:30.332Z,21.23
2023-02-01T07:58:16.684Z,16.27
2023-02-01T08:01:21.307Z,19.83
2023-02-01T08:04:07.668Z,20.17
2023-02-01T08:06:54.431Z,15.20
2023-02-01T08:09:42.546Z,17.77
2023-02-01T08:12:31.008Z,25.73
2023-02-01T08:15:19.261Z,25.48
2023-02-01T08:18:12.152Z,32.92
2023-02-01T08:21:09.662Z,52.15
2023-02-01T08:23:57.340Z,66.72
2023-02-01T08:26:43.717Z,69.07
2023-02-01T08:29:30.848Z,73.80
2023-02-01T08:35:21.192Z,64.63
2023-02-01T08:38:08.542Z,35.50
2023-02-01T08:40:57.851Z,40.78
2023-02-01T08:43:55.986Z,28.05
2023-02-01T08:46:50.418Z,33.03
2023-02-01T08:49:40.619Z,24.30
2023-02-01T08:52:27.487Z,28.45
2023-02-01T08:55:14.463Z,20.45
2023-02-01T08:58:04.457Z,24.23
2023-02-01T09:00:53.093Z,25.02
2023-02-01T09:03:40.294Z,20.13
2023-02-01T09:06:26.599Z,27.73
2023-02-01T09:09:13.897Z,20.92
2023-02-01T09:12:00.157Z,16.63
2023-02-01T09:14:46.887Z,27.13
2023-02-01T09:17:35.178Z,18.00
2023-02-01T09:20:25.467Z,27.08
2023-02-01T09:23:12.125Z,22.30
2023-02-01T09:26:06.207Z,23.88
2023-02-01T09:28:52.989Z,21.55
2023-02-01T09:31:44.197Z,26.08
2023-02-01T09:34:36.665Z,21.95
2023-02-01T09:37:23.353Z,15.63
2023-02-01T09:40:16.427Z,19.33
2023-02-01T09:43:22.767Z,22.85
2023-02-01T09:46:31.095Z,29.90
2023-02-01T09:49:24.578Z,25.40
2023-02-01T09:52:15.262Z,25.60
2023-02-01T09:55:05.974Z,17.20
2023-02-01T09:58:22.031Z,41.83
2023-02-01T10:11:54.838Z,27.38
2023-02-01T10:14:56.352Z,18.70
2023-02-01T10:18:01.470Z,29.05
2023-02-01T10:21:03.114Z,17.88
2023-02-01T10:24:26.590Z,15.27
2023-02-01T10:27:27.243Z,11.55
2023-02-01T10:30:13.510Z,9.98
2023-02-01T10:33:17.393Z,15.93
2023-02-01T10:36:14.023Z,16.85
2023-02-01T10:39:08.967Z,8.05
2023-02-01T10:41:56.399Z,12.10
2023-02-01T10:44:46.489Z,27.67
2023-02-01T10:47:35.662Z,26.55
2023-02-01T10:50:56.545Z,68.15
2023-02-01T10:53:48.339Z,47.58
2023-02-01T10:56:39.078Z,43.42
2023-02-01T10:59:26.543Z,90.40
2023-02-01T11:02:21.820Z,62.78
2023-02-01T11:05:13.328Z,31.40
2023-02-01T11:08:01.486Z,50.55
2023-02-01T11:10:48.282Z,11.60
2023-02-01T11:13:39.702Z,26.95
2023-02-01T11:16:39.190Z,24.13
2023-02-01T11:19:31.754Z,29.77
2023-02-01T11:22:20.741Z,9.52
2023-02-01T11:25:10.520Z,19.42
2023-02-01T11:27:58.062Z,31.33
2023-02-01T11:30:46.792Z,92.93
2023-02-01T11:33:36.336Z,48.80
2023-02-01T11:36:27.693Z,63.05
2023-02-01T11:39:14.194Z,45.40
2023-02-01T11:42:14.262Z,28.40
2023-02-01T11:45:18.860Z,12.55
2023-02-01T11:48:26.327Z,45.05
2023-02-01T11:51:16.046Z,18.55
2023-02-01T11:54:14.723Z,30.30
2023-02-01T11:57:15.352Z,13.55
2023-02-01T12:00:37.450Z,36.40
2023-02-01T12:03:49.005Z,25.13
2023-02-01T12:06:41.542Z,57.10
2023-02-01T12:09:54.843Z,26.75
2023-02-01T12:13:14.052Z,27.60
2023-02-01T12:16:15.662Z,40.22
2023-02-01T12:19:25.095Z,22.02
2023-02-01T12:22:24.581Z,17.23
2023-02-01T12:25:33.037Z,26.38
2023-02-01T12:29:17.691Z,12.98
2023-02-01T12:32:15.584Z,14.70
2023-02-01T12:35:16.557Z,20.58
2023-02-01T12:38:47.474Z,26.08
2023-02-01T12:41:55.803Z,11.07
2023-02-01T12:44:50.549Z,17.20
2023-02-01T12:47:43.397Z,18.10
2023-02-01T12:50:40.990Z,13.23
2023-02-01T12:53:47.824Z,20.65
2023-02-01T12:56:47.083Z,11.23
2023-02-01T12:59:44.047Z,17.42
2023-02-01T13:02:45.361Z,26.58
2023-02-01T13:06:01.236Z,19.92
2023-02-01T13:08:58.449Z,21.60
2023-02-01T13:11:49.185Z,14.32
2023-02-01T13:14:46.253Z,27.60
2023-02-01T13:17:35.102Z,21.65
2023-02-01T13:20:38.402Z,26.02
2023-02-01T13:23:28.661Z,38.40
2023-02-01T13:26:18.012Z,24.33
2023-02-01T13:29:07.469Z,23.27
2023-02-01T13:32:11.006Z,26.17
2023-02-01T13:35:38.313Z,23.20
2023-02-01T13:38:40.509Z,20.20
2023-02-01T13:41:34.366Z,17.77
2023-02-01T13:44:42.454Z,43.33
2023-02-01T13:47:32.464Z,57.90
2023-02-01T13:50:22.176Z,41.80
2023-02-01T13:53:22.546Z,36.58
2023-02-01T14:02:42.246Z,10.73
2023-02-01T14:05:59.967Z,7.85
2023-02-01T14:09:27.059Z,9.93
2023-02-01T14:13:14.277Z,18.55
2023-02-01T14:16:32.703Z,15.98
2023-02-01T14:19:56.288Z,17.15
2023-02-01T14:23:58.898Z,15.75
2023-02-01T14:27:51.459Z,17.15
2023-02-01T14:31:46.880Z,28.98
2023-02-01T14:35:02.161Z,11.65
2023-02-01T14:38:20.856Z,18.35
2023-02-01T14:41:25.705Z,25.60
2023-02-01T14:44:12.951Z,11.85
2023-02-01T14:47:24.599Z,14.70
2023-02-01T14:50:46.445Z,17.00
2023-02-01T14:53:41.614Z,10.80
2023-02-01T14:56:28.757Z,13.55
2023-02-01T14:59:24.804Z,16.00
2023-02-01T15:02:42.469Z,22.33
2023-02-01T15:05:34.044Z,16.85
2023-02-01T15:08:34.968Z,14.48
2023-02-01T15:11:23.810Z,36.38
2023-02-01T15:14:20.679Z,21.33
2023-02-01T15:17:22.064Z,23.25
2023-02-01T15:20:18.876Z,27.92
2023-02-01T15:23:08.876Z,31.60
2023-02-01T15:25:56.245Z,29.58
2023-02-01T15:28:42.623Z,20.30
2023-02-01T15:31:56.610Z,17.52
2023-02-01T15:34:50.033Z,14.65
2023-02-01T15:37:39.476Z,13.77
2023-02-01T15:40:28.715Z,12.82
2023-02-01T15:43:17.909Z,17.38
2023-02-01T15:48:58.742Z,18.48
2023-02-01T15:51:49.540Z,14.13
2023-02-01T15:54:50.309Z,13.93
2023-02-01T15:57:41.626Z,18.30
2023-02-01T16:00:43.661Z,16.00
2023-02-01T16:03:38.270Z,15.35
2023-02-01T16:09:57.747Z,25.92
2023-02-01T16:12:47.758Z,27.20
2023-02-01T16:15:35.638Z,12.43
2023-02-01T16:18:22.319Z,14.23
2023-02-01T16:21:12.168Z,12.95
2023-02-01T16:24:00.587Z,11.98
2023-02-01T16:26:47.216Z,12.48
2023-02-01T16:29:34.572Z,14.52
2023-02-01T16:32:22.963Z,13.73
2023-02-01T16:35:22.785Z,13.45
2023-02-01T16:38:14.383Z,34.55
2023-02-01T16:43:54.231Z,18.55
2023-02-01T16:46:44.149Z,24.90
2023-02-01T16:49:31.030Z,20.98
2023-02-01T16:52:25.434Z,24.60
2023-02-01T16:55:16.969Z,18.67
2023-02-01T16:58:03.618Z,16.02
2023-02-01T17:00:51.967Z,13.88
2023-02-01T17:03:39.266Z,11.35
2023-02-01T17:06:26.889Z,11.52
2023-02-01T17:09:13.407Z,15.00
2023-02-01T17:11:59.814Z,13.38
2023-02-01T17:14:46.341Z,13.48
2023-02-01T17:17:39.762Z,10.77
2023-02-01T17:20:28.228Z,15.98
2023-02-01T17:23:16.540Z,15.52
2023-02-01T17:26:03.880Z,19.98
2023-02-01T17:28:51.035Z,25.30
2023-02-01T17:31:41.731Z,21.45
2023-02-01T17:34:30.934Z,29.83
2023-02-01T17:37:28.220Z,13.40
2023-02-01T17:40:15.106Z,56.67
2023-02-01T17:43:01.930Z,48.75
2023-02-01T17:49:41.330Z,24.63
2023-02-01T17:52:29.318Z,20.13
2023-02-01T17:55:23.469Z,15.52
2023-02-01T17:58:14.747Z,24.67
2023-02-01T18:01:01.363Z,42.00
2023-02-01T18:03:51.065Z,41.20
2023-02-01T18:06:39.779Z,28.30
2023-02-01T18:09:26.552Z,33.25
2023-02-01T18:12:20.975Z,39.60
2023-02-01T18:15:22.245Z,22.83
2023-02-01T18:18:08.939Z,46.83
2023-02-01T18:20:55.396Z,18.42
2023-02-01T18:23:41.771Z,18.42
2023-02-01T18:26:28.441Z,18.40
2023-02-01T18:29:15.729Z,15.98
2023-02-01T18:32:04.446Z,20.42
2023-02-01T18:34:51.210Z,20.58
2023-02-01T18:37:39.350Z,36.75
2023-02-01T18:40:29.651Z,70.82
2023-02-01T18:43:16.722Z,16.73
2023-02-01T18:46:11.110Z,12.20
2023-02-01T18:48:58.159Z,16.05
2023-02-01T18:51:46.930Z,26.95
2023-02-01T18:54:33.383Z,20.95
2023-02-01T18:57:23.254Z,37.65
2023-02-01T19:00:12.766Z,27.80
2023-02-01T19:03:00.414Z,26.73
2023-02-01T19:05:52.102Z,17.65
2023-02-01T19:08:39.637Z,18.25
2023-02-01T19:11:26.269Z,23.98
2023-02-01T19:14:12.878Z,32.53
2023-02-01T19:17:01.491Z,19.70
2023-02-01T19:19:50.327Z,22.63
2023-02-01T19:22:37.660Z,11.43
2023-02-01T19:25:29.714Z,31.95
2023-02-01T19:28:18.207Z,23.85
2023-02-01T19:31:06.536Z,43.53
2023-02-01T19:33:54.917Z,17.85
2023-02-01T19:36:42.742Z,11.60
2023-02-01T19:39:29.902Z,17.90
2023-02-01T19:42:16.681Z,23.05
2023-02-01T19:45:04.289Z,19.40
2023-02-01T19:47:51.021Z,23.75
2023-02-01T19:50:38.491Z,23.40
2023-02-01T19:53:27.854Z,21.13
2023-02-01T19:56:15.334Z,11.47
2023-02-01T19:59:02.458Z,16.48
2023-02-01T20:01:48.507Z,13.65
2023-02-01T20:04:35.214Z,17.20
2023-02-01T20:07:22.666Z,14.38
2023-02-01T20:10:10.295Z,13.07
2023-02-01T20:13:00.076Z,14.27
2023-02-01T20:15:49.065Z,17.70
2023-02-01T20:18:36.619Z,17.58
2023-02-01T20:21:23.426Z,38.30
2023-02-01T20:24:17.773Z,51.90
2023-02-01T20:27:06.499Z,21.23
2023-02-01T20:29:53.107Z,15.77
2023-02-01T20:32:39.498Z,18.17
2023-02-01T20:35:29.242Z,13.48
2023-02-01T20:38:15.749Z,21.25
2023-02-01T20:41:04.315Z,13.52
2023-02-01T20:43:50.949Z,14.52
2023-02-01T20:46:38.780Z,7.03
2023-02-01T20:49:25.358Z,10.73
2023-02-01T20:52:12.236Z,12.95
2023-02-01T20:54:58.628Z,9.63
2023-02-01T20:57:45.580Z,12.02
2023-02-01T21:00:32.140Z,11.60
2023-02-01T21:03:18.893Z,21.60
2023-02-01T21:06:06.928Z,10.50
2023-02-01T21:08:54.166Z,10.52
2023-02-01T21:11:40.807Z,11.57
2023-02-01T21:14:27.711Z,11.38
2023-02-01T21:17:14.430Z,9.82
2023-02-01T21:20:01.302Z,8.10
2023-02-01T21:22:50.053Z,21.25
2023-02-01T21:25:40.278Z,10.93
2023-02-01T21:28:26.914Z,8.35
2023-02-01T21:31:15.831Z,9.57
2023-02-01T21:34:06.855Z,8.32
2023-02-01T21:44:25.559Z,10.27
2023-02-01T21:47:11.626Z,8.70
2023-02-01T21:50:03.596Z,8.70
2023-02-01T21:52:50.605Z,14.85
2023-02-01T21:55:37.019Z,11.75
2023-02-01T21:58:23.129Z,10.63
2023-02-01T22:01:10.247Z,11.00
2023-02-01T22:03:56.841Z,12.35
2023-02-01T22:06:46.156Z,7.90
2023-02-01T22:09:32.624Z,7.32
2023-02-01T22:12:19.264Z,8.95
2023-02-01T22:15:05.717Z,13.00
2023-02-01T22:17:52.509Z,11.48
2023-02-01T22:20:38.844Z,8.52
2023-02-01T22:23:27.944Z,8.43
2023-02-01T22:26:14.818Z,11.18
2023-02-01T22:29:01.330Z,12.48
2023-02-01T22:31:48.292Z,7.43
2023-02-01T22:34:34.913Z,7.63
2023-02-01T22:37:21.387Z,10.10
2023-02-01T22:40:08.621Z,6.55
2023-02-01T22:42:55.309Z,8.88
2023-02-01T22:45:42.054Z,8.32
2023-02-01T22:48:29.955Z,7.53
2023-02-01T22:51:31.577Z,9.13
2023-02-01T22:54:23.849Z,6.72
2023-02-01T22:57:10.798Z,11.98
2023-02-01T22:59:57.521Z,9.95
2023-02-01T23:02:45.438Z,6.95
2023-02-01T23:05:31.716Z,15.80
2023-02-01T23:08:18.612Z,13.70
2023-02-01T23:11:12.268Z,10.80
2023-02-01T23:13:58.919Z,12.10
2023-02-01T23:16:49.892Z,10.52
2023-02-01T23:19:36.727Z,7.15
2023-02-01T23:22:23.112Z,12.32
2023-02-01T23:25:11.186Z,13.88
2023-02-01T23:27:57.755Z,17.17
2023-02-01T23:30:44.621Z,8.80
2023-02-01T23:33:30.803Z,13.70
2023-02-01T23:36:17.690Z,10.25
2023-02-01T23:39:03.983Z,6.10
2023-02-01T23:41:50.390Z,10.57
2023-02-01T23:44:36.677Z,11.55
2023-02-01T23:47:23.597Z,13.02
2023-02-01T23:50:10.382Z,13.15
2023-02-01T23:52:56.799Z,19.23
2023-02-01T23:55:43.046Z,10.63
2023-02-01T23:58:29.880Z,14.38
